Decoded Metar for KAPC (NAPA in CA, USA) (IATA:APC) | Meteo·Mobile Aviation Weather
aviador You're here:

KAPC Decoded Metar

NAPA in CA, USA
Report Time2018-12-18 16:30:00
UTC Time2018-12-18 16:48:10
Flight Rules ifr IFR
Wind070° at 03 kt
W.Decomp.*RWY 06: 3.0 kt HW 0.3 kt LCW
RWY 36: 1.7 kt HW 2.5 kt RCW
W.Rank070° ranks 33
Current wind is below 070° avg. (4.5)
Visibility9999 m
Phenomena:N/A
Clouds:Broken 005 Hf
Overcast 011 Hf
Expected CloudBase > 400 ft AGL from Temp-Dew spread
Ceiling500 ft
Temp08°C (ISA -7)
Dew Point07°C (93% RH)
AAT6.2°C
QNH1027 hPa
Density Alt-1,125 ft
Elevation43 ft
Report Wrong Elevation
Raw Report
KAPC 181630Z 07003KT 10SM BKN005 OVC011 08/07 A3034 RMK AO2
T00780072=

Extra information for KAPC:More info

Metar Taf Metar & Taf Last 4 Metars F.Rules Stats Wind Profile Meteogram Temp Stats Airport Information Weather charts Add Link Nearby VenuesMetar ALERT Operation Metar Decoded Social comments

AIRNAV info for KAPC